Time;durP1;ratioP1;P1;durP2;ratioP2;P2;SDS_P1;SDS_P2;PMS_P1;PMS_P2;Temp;Humidity;BMP_temperature;BMP_pressure;BME280_temperature;BME280_humidity;BME280_pressure;Samples;Min_cycle;Max_cycle;Signal;HPM_P1;HPM_P2
2022/04/06 00:00:48;;;;;;;28.85;10.30;;;;;;;9.30;86.31;100397.63;5069841;28;20537;-69
2022/04/06 00:03:14;;;;;;;32.50;9.80;;;;;;;9.20;86.69;100389.38;5071841;28;20483;-70
2022/04/06 00:05:40;;;;;;;24.45;8.63;;;;;;;9.13;87.02;100377.47;5071080;28;20079;-70
2022/04/06 00:08:07;;;;;;;20.45;9.13;;;;;;;9.26;86.37;100389.00;5072208;28;20016;-69
2022/04/06 00:10:32;;;;;;;22.25;8.73;;;;;;;9.21;87.00;100390.28;5071105;28;20035;-70
2022/04/06 00:13:00;;;;;;;27.92;9.68;;;;;;;9.07;87.29;100372.56;5069317;28;20479;-70
2022/04/06 00:15:26;;;;;;;25.77;9.40;;;;;;;9.09;86.79;100360.06;5068573;28;20028;-70
2022/04/06 00:17:53;;;;;;;32.80;10.38;;;;;;;9.22;86.28;100387.50;5079359;28;20045;-70
2022/04/06 00:20:18;;;;;;;27.10;10.00;;;;;;;9.09;86.80;100376.00;5072377;28;20028;-69
2022/04/06 00:22:44;;;;;;;29.10;9.82;;;;;;;9.10;87.48;100373.22;5070114;28;20020;-70
2022/04/06 00:25:14;;;;;;;21.45;9.52;;;;;;;9.12;87.52;100380.22;5070799;28;20482;-70
2022/04/06 00:27:40;;;;;;;23.85;8.85;;;;;;;9.11;86.99;100376.72;5073340;28;20095;-70
2022/04/06 00:30:06;;;;;;;27.83;9.90;;;;;;;9.11;86.83;100376.72;5091967;28;20170;-70
2022/04/06 00:32:34;;;;;;;27.98;9.48;;;;;;;9.10;86.94;100375.88;5073574;28;20032;-70
2022/04/06 00:37:47;;;;;;;22.42;8.95;;;;;;;9.17;86.18;100365.72;5075610;28;20062;-70
2022/04/06 00:40:12;;;;;;;30.70;8.85;;;;;;;9.12;86.81;100373.13;5070282;28;20215;-70
2022/04/06 00:42:38;;;;;;;21.33;9.45;;;;;;;9.00;87.02;100365.94;5080962;28;20024;-69
2022/04/06 00:45:06;;;;;;;22.70;8.32;;;;;;;9.12;86.71;100367.84;5098136;28;20118;-69
2022/04/06 00:47:32;;;;;;;21.75;9.35;;;;;;;9.05;86.79;100367.34;5069230;28;20029;-70
2022/04/06 00:49:57;;;;;;;22.50;9.00;;;;;;;9.03;87.18;100371.06;5069107;28;20032;-69
2022/04/06 00:52:25;;;;;;;26.05;9.07;;;;;;;9.01;87.17;100368.50;5068511;28;20033;-69
2022/04/06 00:54:54;;;;;;;25.48;8.50;;;;;;;9.00;87.23;100364.16;5070219;28;20043;-70
2022/04/06 00:57:22;;;;;;;23.92;8.75;;;;;;;9.03;87.30;100365.75;5070170;28;20145;-70
2022/04/06 00:59:50;;;;;;;22.70;8.98;;;;;;;8.98;87.46;100365.22;5083961;28;20028;-70
2022/04/06 01:02:16;;;;;;;22.73;8.68;;;;;;;9.10;86.37;100357.31;5072850;28;20047;-70
2022/04/06 01:04:42;;;;;;;21.85;8.52;;;;;;;9.00;87.20;100356.22;5070045;28;20507;-70
2022/04/06 01:07:08;;;;;;;23.85;8.90;;;;;;;8.95;87.40;100354.81;5073356;28;20041;-70
2022/04/06 01:09:34;;;;;;;25.73;9.27;;;;;;;8.95;87.64;100360.09;5067347;28;20686;-70
2022/04/06 01:12:03;;;;;;;25.48;9.02;;;;;;;8.98;87.26;100360.75;5069812;28;20024;-70
2022/04/06 01:14:29;;;;;;;25.88;8.00;;;;;;;8.97;86.83;100350.22;5070637;28;20032;-70
2022/04/06 01:17:07;;;;;;;26.25;8.18;;;;;;;8.92;87.29;100345.25;5078877;28;20059;-69
2022/04/06 01:19:38;;;;;;;23.02;8.52;;;;;;;8.97;86.99;100337.84;5076963;28;20035;-70
2022/04/06 01:22:08;;;;;;;19.67;7.28;;;;;;;8.98;86.69;100342.19;5078952;28;20051;-70
2022/04/06 01:24:36;;;;;;;26.70;8.55;;;;;;;8.94;86.75;100342.47;5069266;28;20035;-69
2022/04/06 01:27:06;;;;;;;24.33;7.47;;;;;;;8.91;87.16;100340.03;5070042;28;20372;-70
2022/04/06 01:29:32;;;;;;;25.45;7.88;;;;;;;8.91;86.94;100337.38;5071853;28;20507;-70
2022/04/06 01:32:30;;;;;;;21.90;7.43;;;;;;;8.93;86.91;100338.13;5074687;28;20090;-70
2022/04/06 01:34:56;;;;;;;25.80;7.32;;;;;;;8.92;86.58;100341.75;5069822;28;20036;-70
2022/04/06 01:37:22;;;;;;;25.80;8.02;;;;;;;8.94;86.33;100338.03;5068267;28;20054;-70
2022/04/06 01:39:49;;;;;;;21.38;7.25;;;;;;;8.95;86.03;100339.75;5070065;28;20023;-69
2022/04/06 01:42:18;;;;;;;23.35;8.15;;;;;;;8.92;85.91;100331.13;5069954;28;20463;-69
2022/04/06 01:44:45;;;;;;;26.52;6.40;;;;;;;8.94;85.76;100340.69;5077434;28;20085;-70
2022/04/06 01:47:12;;;;;;;24.70;7.47;;;;;;;8.88;86.05;100327.81;5070075;28;20020;-70
2022/04/06 01:52:27;;;;;;;25.00;7.72;;;;;;;8.89;84.98;100312.78;5069346;28;20632;-70
2022/04/06 01:54:57;;;;;;;21.08;6.72;;;;;;;8.89;86.11;100326.03;5069644;28;20506;-70
2022/04/06 01:57:24;;;;;;;;;;;;;;;9.10;85.04;100335.25;5073415;28;20048;-70
2022/04/06 01:59:50;;;;;;;18.92;7.18;;;;;;;8.94;84.97;100323.91;5070055;28;19916;-69
2022/04/06 02:02:17;;;;;;;19.48;6.60;;;;;;;8.82;85.26;100326.44;5069234;28;20494;-69
2022/04/06 02:04:44;;;;;;;22.25;6.60;;;;;;;8.82;85.75;100329.06;5070311;28;20453;-69
2022/04/06 02:07:10;;;;;;;19.25;7.07;;;;;;;8.84;85.13;100327.16;5072929;28;20059;-69
2022/04/06 02:09:36;;;;;;;19.85;6.72;;;;;;;8.82;85.97;100325.56;5081969;28;20051;-70
2022/04/06 02:12:03;;;;;;;22.65;7.38;;;;;;;8.84;84.99;100319.19;5084351;28;20421;-70
2022/04/06 02:14:29;;;;;;;19.48;6.47;;;;;;;8.93;84.04;100314.25;5073278;28;20109;-69
2022/04/06 02:16:59;;;;;;;19.23;6.75;;;;;;;8.80;84.24;100315.06;5075973;28;20064;-70
2022/04/06 02:19:26;;;;;;;18.95;6.40;;;;;;;8.78;84.84;100313.44;5073913;28;20102;-69
2022/04/06 02:21:51;;;;;;;18.60;6.45;;;;;;;8.84;84.33;100321.00;5073632;28;20017;-70
2022/04/06 02:24:20;;;;;;;21.58;6.30;;;;;;;8.89;84.08;100315.41;5055946;28;20394;-70
2022/04/06 02:26:45;;;;;;;18.23;6.03;;;;;;;8.79;84.82;100315.13;5073384;28;20016;-70
2022/04/06 02:29:12;;;;;;;21.15;6.28;;;;;;;8.74;84.84;100307.50;5082685;28;20396;-70
2022/04/06 02:31:37;;;;;;;20.42;6.47;;;;;;;8.81;83.86;100308.78;5072731;28;20031;-70
2022/04/06 02:34:03;;;;;;;18.33;6.60;;;;;;;8.75;84.07;100303.88;5087507;28;20024;-70
2022/04/06 02:36:31;;;;;;;20.40;5.93;;;;;;;8.74;84.36;100304.00;5076662;28;20033;-70
2022/04/06 02:38:56;;;;;;;23.55;6.28;;;;;;;8.75;83.98;100303.03;5073045;28;20073;-69
2022/04/06 02:41:22;;;;;;;22.92;6.72;;;;;;;8.70;83.83;100302.47;5071813;28;20029;-70
2022/04/06 02:43:47;;;;;;;18.67;5.50;;;;;;;8.70;84.05;100305.97;5072968;28;20024;-70
2022/04/06 02:46:13;;;;;;;21.40;6.57;;;;;;;8.74;83.43;100296.91;5072472;28;20029;-70
2022/04/06 02:48:39;;;;;;;20.92;5.88;;;;;;;8.82;82.62;100296.38;5072360;28;20044;-70
2022/04/06 02:51:04;;;;;;;21.65;5.65;;;;;;;8.67;83.56;100292.91;5072987;28;20039;-70
2022/04/06 02:53:30;;;;;;;15.27;5.57;;;;;;;8.66;83.27;100296.53;5074502;28;20084;-70
2022/04/06 02:55:57;;;;;;;15.68;5.97;;;;;;;8.73;82.33;100294.31;5076709;28;20106;-70
2022/04/06 02:58:23;;;;;;;22.70;6.10;;;;;;;8.67;82.56;100286.78;5070466;28;20135;-70
2022/04/06 03:00:48;;;;;;;19.52;5.97;;;;;;;8.61;82.24;100280.06;5087748;28;20037;-70
2022/04/06 03:03:13;;;;;;;14.18;5.22;;;;;;;8.60;82.73;100287.16;5072222;28;20024;-70
2022/04/06 03:05:42;;;;;;;12.13;5.22;;;;;;;8.57;82.63;100275.91;5074005;28;20468;-70
2022/04/06 03:08:29;;;;;;;19.50;5.72;;;;;;;8.51;82.72;100271.00;5071430;28;20032;-70
2022/04/06 03:10:56;;;;;;;12.70;5.50;;;;;;;8.55;82.71;100275.16;5073406;28;20047;-70
2022/04/06 03:13:22;;;;;;;15.57;5.22;;;;;;;8.55;82.49;100277.81;5044756;28;20048;-70
2022/04/06 03:15:47;;;;;;;15.30;5.00;;;;;;;8.56;81.96;100264.47;5056943;28;20150;-70
2022/04/06 03:18:13;;;;;;;17.25;5.53;;;;;;;8.59;81.61;100274.88;5072216;28;20079;-70
2022/04/06 03:20:38;;;;;;;21.52;5.97;;;;;;;8.53;81.63;100266.44;5049373;28;20060;-70
2022/04/06 03:23:04;;;;;;;17.30;5.80;;;;;;;8.53;82.09;100263.78;5036915;28;20040;-70
2022/04/06 03:25:29;;;;;;;22.50;6.53;;;;;;;8.58;81.33;100259.91;5067292;28;20487;-70
2022/04/06 03:27:55;;;;;;;19.50;5.60;;;;;;;8.58;80.83;100261.69;5085907;28;20032;-70
2022/04/06 03:30:23;;;;;;;17.23;4.97;;;;;;;8.55;81.46;100259.25;5059650;28;20487;-70
2022/04/06 03:32:49;;;;;;;15.63;5.45;;;;;;;8.55;80.90;100251.31;5054951;28;20071;-70
2022/04/06 03:35:14;;;;;;;17.83;4.60;;;;;;;8.50;80.73;100241.00;5068228;28;20490;-70
2022/04/06 03:37:39;;;;;;;14.13;5.03;;;;;;;8.49;80.99;100239.28;5055383;28;20483;-70
2022/04/06 03:40:08;;;;;;;15.90;5.30;;;;;;;8.59;79.75;100253.66;5071648;28;20518;-70
2022/04/06 03:42:34;;;;;;;13.55;4.68;;;;;;;8.52;79.56;100230.28;5068946;28;20059;-70
2022/04/06 03:45:00;;;;;;;15.43;4.78;;;;;;;8.56;79.17;100237.09;5070784;28;20173;-70
2022/04/06 03:47:33;;;;;;;21.70;5.75;;;;;;;8.50;79.67;100235.72;5074895;28;20028;-70
2022/04/06 03:50:02;;;;;;;18.60;5.20;;;;;;;8.50;79.46;100238.38;5080421;28;20024;-70
2022/04/06 03:52:28;;;;;;;16.50;5.05;;;;;;;8.49;79.49;100230.50;5069332;28;20029;-70
2022/04/06 03:54:54;;;;;;;14.23;4.38;;;;;;;8.48;79.23;100237.59;5073397;28;20025;-70
2022/04/06 03:57:19;;;;;;;16.65;5.18;;;;;;;8.44;79.30;100238.72;5085959;28;20123;-71
2022/04/06 03:59:45;;;;;;;13.57;4.07;;;;;;;8.49;79.16;100234.00;5082615;28;20153;-70
2022/04/06 04:02:11;;;;;;;14.80;4.38;;;;;;;8.52;78.53;100232.94;5080309;28;20046;-70
2022/04/06 04:04:36;;;;;;;14.90;4.97;;;;;;;8.46;78.91;100239.50;5074829;28;20030;-70
2022/04/06 04:07:02;;;;;;;15.57;4.70;;;;;;;8.39;79.08;100222.28;5079324;28;20024;-70
2022/04/06 04:09:31;;;;;;;16.52;4.53;;;;;;;8.42;78.85;100222.09;5070215;28;20507;-70
2022/04/06 04:11:56;;;;;;;17.85;4.22;;;;;;;8.45;78.67;100229.84;5068617;28;20051;-70
2022/04/06 04:14:25;;;;;;;16.60;5.07;;;;;;;8.41;79.07;100220.38;5069587;28;20487;-70
2022/04/06 04:16:51;;;;;;;16.80;4.93;;;;;;;8.45;79.51;100237.81;5070616;28;20048;-70
2022/04/06 04:19:17;;;;;;;14.45;4.47;;;;;;;8.43;80.04;100220.28;5075869;28;20479;-70
2022/04/06 04:21:43;;;;;;;16.67;4.90;;;;;;;8.45;80.65;100232.50;5078309;28;20118;-70
2022/04/06 04:24:10;;;;;;;18.88;5.18;;;;;;;8.49;80.88;100220.75;5074240;28;20027;-70
2022/04/06 04:26:40;;;;;;;14.35;5.32;;;;;;;8.48;80.95;100224.34;5076395;28;20028;-70
2022/04/06 04:29:09;;;;;;;17.35;6.30;;;;;;;8.45;81.40;100221.91;5083937;28;20095;-70
2022/04/06 04:31:34;;;;;;;15.30;5.78;;;;;;;8.61;80.91;100217.28;5078479;28;20115;-70
2022/04/06 04:34:03;;;;;;;22.13;6.38;;;;;;;8.49;81.49;100215.44;5069343;28;20115;-70
2022/04/06 04:36:30;;;;;;;21.08;7.15;;;;;;;8.56;81.72;100218.53;5081215;28;20024;-70
2022/04/06 04:38:56;;;;;;;15.57;5.82;;;;;;;8.56;81.68;100213.22;5068441;28;20929;-70
2022/04/06 04:41:22;;;;;;;21.67;6.40;;;;;;;8.57;81.53;100220.25;5078601;28;20056;-70
2022/04/06 04:43:50;;;;;;;32.10;6.78;;;;;;;8.43;82.06;100194.63;5085999;28;20089;-70
2022/04/06 04:46:19;;;;;;;24.40;6.68;;;;;;;8.56;81.82;100219.41;5083671;28;20020;-70
2022/04/06 04:48:45;;;;;;;24.00;7.53;;;;;;;8.56;82.65;100210.59;5068830;28;20497;-70
2022/04/06 04:51:11;;;;;;;23.02;7.43;;;;;;;8.52;82.73;100204.63;5069802;28;20032;-70
2022/04/06 04:53:37;;;;;;;23.58;8.18;;;;;;;8.61;82.14;100206.69;5077082;28;20043;-70
2022/04/06 04:56:07;;;;;;;17.80;7.43;;;;;;;8.54;82.57;100196.59;5069983;28;20044;-70
2022/04/06 04:58:35;;;;;;;23.42;7.53;;;;;;;8.54;82.39;100192.16;5072804;28;20438;-70
2022/04/06 05:01:02;;;;;;;21.33;8.05;;;;;;;8.54;82.42;100194.81;5069190;28;20036;-70
2022/04/06 05:03:27;;;;;;;21.80;8.23;;;;;;;8.53;82.25;100194.88;5069652;28;20013;-70
2022/04/06 05:05:54;;;;;;;19.98;7.68;;;;;;;8.63;81.44;100191.53;5082969;28;20363;-70
2022/04/06 05:08:23;;;;;;;22.88;8.57;;;;;;;8.53;82.18;100178.97;5081395;28;20485;-70
2022/04/06 05:10:49;;;;;;;24.80;8.52;;;;;;;8.50;82.24;100180.06;5082543;28;20050;-71
2022/04/06 05:13:17;;;;;;;24.90;7.20;;;;;;;8.63;81.05;100196.00;5068844;28;20522;-70
2022/04/06 05:15:44;;;;;;;19.88;8.52;;;;;;;8.55;81.09;100193.84;5068622;28;20415;-70
2022/04/06 05:18:09;;;;;;;20.73;8.45;;;;;;;8.53;81.89;100190.47;5066535;28;20020;-70
2022/04/06 05:20:34;;;;;;;21.40;7.20;;;;;;;8.59;81.23;100194.50;5068365;28;20152;-70
2022/04/06 05:23:00;;;;;;;18.10;6.97;;;;;;;8.57;81.33;100188.44;5051212;28;20033;-70
2022/04/06 05:25:25;;;;;;;20.35;6.75;;;;;;;8.59;80.87;100186.56;5067195;28;20387;-70
2022/04/06 05:27:53;;;;;;;20.70;7.07;;;;;;;8.53;81.94;100185.16;5068158;28;20044;-70
2022/04/06 05:30:21;;;;;;;21.95;7.25;;;;;;;8.57;81.64;100189.28;5074088;28;20071;-70
2022/04/06 05:32:49;;;;;;;19.80;6.32;;;;;;;8.52;81.74;100186.09;5069839;28;20074;-70
2022/04/06 05:35:14;;;;;;;15.90;6.28;;;;;;;8.51;81.09;100187.03;5068896;28;20025;-70
2022/04/06 05:37:41;;;;;;;22.17;6.20;;;;;;;8.57;80.72;100180.50;5069020;28;20475;-70
2022/04/06 05:40:11;;;;;;;17.90;5.55;;;;;;;8.56;80.81;100181.44;5071233;28;20399;-70
2022/04/06 05:42:37;;;;;;;16.15;6.70;;;;;;;8.51;81.08;100179.09;5073354;28;20025;-70
2022/04/06 05:45:09;;;;;;;19.77;5.93;;;;;;;8.54;81.37;100186.84;5085788;28;20024;-70
2022/04/06 05:47:37;;;;;;;18.13;5.93;;;;;;;8.64;79.79;100184.44;5087679;28;20104;-70
2022/04/06 05:50:08;;;;;;;16.85;5.13;;;;;;;8.56;80.47;100184.94;5074662;28;20025;-70
2022/04/06 05:52:33;;;;;;;17.88;5.88;;;;;;;8.56;79.79;100182.31;5085167;28;20036;-70
2022/04/06 05:55:05;;;;;;;13.90;5.03;;;;;;;8.62;79.19;100165.16;5073360;28;20051;-70
2022/04/06 05:57:33;;;;;;;10.25;4.32;;;;;;;8.65;79.19;100172.91;5080119;28;20053;-70
2022/04/06 05:59:58;;;;;;;13.98;5.05;;;;;;;8.60;78.72;100175.00;5044070;28;20204;-70
2022/04/06 06:02:29;;;;;;;15.23;4.68;;;;;;;8.60;78.14;100175.00;5072736;28;20094;-70
2022/04/06 06:04:56;;;;;;;14.98;4.70;;;;;;;8.73;77.91;100183.81;5072730;28;20020;-70
2022/04/06 06:07:24;;;;;;;15.88;4.75;;;;;;;8.64;78.29;100179.97;5080329;28;20081;-70
2022/04/06 06:09:49;;;;;;;13.40;4.63;;;;;;;8.46;77.01;100154.69;5073164;28;20024;-70
2022/04/06 06:12:15;;;;;;;13.88;4.57;;;;;;;8.60;77.46;100183.78;5055594;28;20031;-70
2022/04/06 06:14:41;;;;;;;10.32;4.55;;;;;;;8.60;76.40;100177.66;5076951;28;20020;-69
2022/04/06 06:17:08;;;;;;;10.95;4.35;;;;;;;8.67;76.00;100180.75;5081661;28;20024;-70
2022/04/06 06:19:36;;;;;;;9.20;3.42;;;;;;;8.86;72.47;100195.34;5084799;28;20028;-70
2022/04/06 06:22:04;;;;;;;9.48;3.72;;;;;;;8.63;73.06;100175.63;5071838;28;20471;-70
2022/04/06 06:24:30;;;;;;;8.95;3.20;;;;;;;8.81;72.39;100204.53;5073962;28;20033;-70
2022/04/06 06:26:58;;;;;;;13.35;3.60;;;;;;;8.85;71.81;100188.34;5074335;28;20028;-70
2022/04/06 06:29:24;;;;;;;8.10;3.58;;;;;;;8.79;72.18;100187.88;5076424;28;20079;-70
2022/04/06 06:31:51;;;;;;;9.40;3.70;;;;;;;8.74;72.46;100177.59;5069773;28;20050;-70
2022/04/06 06:34:19;;;;;;;7.95;3.15;;;;;;;8.79;71.00;100180.75;5073695;28;20043;-70
2022/04/06 06:36:45;;;;;;;9.05;3.55;;;;;;;8.83;70.41;100181.44;5070746;28;20538;-70
2022/04/06 06:39:12;;;;;;;8.13;3.25;;;;;;;8.74;70.20;100159.03;5072987;28;20024;-70
2022/04/06 06:41:37;;;;;;;8.98;3.42;;;;;;;8.90;70.71;100179.22;5071891;28;20376;-70
2022/04/06 06:44:04;;;;;;;7.72;3.42;;;;;;;8.91;70.69;100183.56;5054810;28;20033;-70
2022/04/06 06:46:31;;;;;;;11.45;3.45;;;;;;;8.91;69.80;100181.75;5079738;28;20016;-70
2022/04/06 06:49:02;;;;;;;11.43;3.25;;;;;;;8.93;69.30;100171.91;5074468;28;20501;-70
2022/04/06 06:51:31;;;;;;;9.18;3.08;;;;;;;8.96;69.46;100165.53;5090947;28;20047;-70
2022/04/06 06:53:57;;;;;;;7.30;2.80;;;;;;;9.00;68.59;100172.31;5072268;28;20466;-70
2022/04/06 06:56:23;;;;;;;8.55;3.33;;;;;;;8.94;69.46;100167.44;5072875;28;20615;-70
2022/04/06 06:58:48;;;;;;;7.65;2.90;;;;;;;9.07;68.17;100169.16;5070452;28;20062;-70
2022/04/06 07:01:14;;;;;;;9.57;3.30;;;;;;;9.02;69.24;100160.66;5066485;28;20024;-70
2022/04/06 07:03:40;;;;;;;8.88;3.50;;;;;;;8.94;69.77;100155.06;5071030;28;20043;-70
2022/04/06 07:06:05;;;;;;;9.77;3.20;;;;;;;9.04;69.27;100163.22;5071470;28;20125;-70
2022/04/06 07:08:30;;;;;;;8.50;3.72;;;;;;;9.03;70.16;100173.00;5071919;28;20043;-70
2022/04/06 07:10:58;;;;;;;11.50;3.70;;;;;;;9.09;69.73;100171.72;5082106;28;20102;-70
2022/04/06 07:13:25;;;;;;;7.38;3.00;;;;;;;9.04;70.31;100169.38;5070233;28;20106;-70
2022/04/06 07:15:50;;;;;;;17.30;4.63;;;;;;;9.05;71.90;100167.56;5077469;28;20039;-70
2022/04/06 07:18:21;;;;;;;10.13;4.30;;;;;;;8.99;72.88;100173.28;5071385;28;20021;-70
2022/04/06 07:20:47;;;;;;;12.93;4.85;;;;;;;9.08;73.08;100167.34;5069257;28;20028;-70
2022/04/06 07:23:12;;;;;;;16.13;4.70;;;;;;;8.95;74.46;100161.19;5073901;28;20383;-70
2022/04/06 07:25:40;;;;;;;17.55;4.78;;;;;;;8.97;74.80;100146.88;5071436;28;20027;-70
2022/04/06 07:28:06;;;;;;;11.45;5.07;;;;;;;8.92;75.49;100150.81;5089029;28;20119;-70
2022/04/06 07:30:35;;;;;;;11.57;5.20;;;;;;;9.00;74.86;100157.28;5071545;28;20057;-69
2022/04/06 07:33:03;;;;;;;12.65;4.80;;;;;;;8.91;75.91;100155.22;5072446;28;20126;-70
2022/04/06 07:35:31;;;;;;;19.88;6.00;;;;;;;8.94;76.21;100151.53;5056773;28;20136;-70
2022/04/06 07:37:57;;;;;;;11.77;4.57;;;;;;;8.92;76.03;100146.34;5084348;28;20031;-70
2022/04/06 07:40:23;;;;;;;15.80;5.20;;;;;;;8.96;75.49;100131.06;5069480;28;20429;-70
2022/04/06 07:42:52;;;;;;;13.73;4.75;;;;;;;8.89;76.58;100141.25;5051440;28;20375;-70
2022/04/06 07:45:21;;;;;;;10.60;4.77;;;;;;;8.90;76.30;100134.97;5077087;28;20474;-70
2022/04/06 07:47:48;;;;;;;14.00;5.00;;;;;;;8.99;76.25;100136.16;5072016;28;20808;-70
2022/04/06 07:50:17;;;;;;;14.20;4.85;;;;;;;8.87;76.41;100125.44;5073556;28;20360;-70
2022/04/06 07:52:44;;;;;;;10.00;4.20;;;;;;;9.03;75.85;100125.25;5073087;28;20028;-70
2022/04/06 07:55:10;;;;;;;13.43;5.05;;;;;;;9.04;75.77;100131.41;5075011;28;20055;-70
2022/04/06 07:57:36;;;;;;;10.30;4.70;;;;;;;9.04;76.10;100116.31;5080969;28;20052;-70
2022/04/06 08:00:09;;;;;;;13.82;4.20;;;;;;;9.14;76.08;100113.03;5079227;28;20324;-70
2022/04/06 08:02:38;;;;;;;11.15;4.50;;;;;;;9.23;75.31;100118.53;5071921;28;20036;-70
2022/04/06 08:05:04;;;;;;;11.70;4.38;;;;;;;9.31;75.93;100112.72;5077608;28;20510;-70
2022/04/06 08:07:30;;;;;;;13.68;4.90;;;;;;;9.40;74.75;100112.06;5054066;28;20028;-70
2022/04/06 08:09:56;;;;;;;13.30;4.40;;;;;;;9.20;75.40;100088.72;5078347;28;20039;-70
2022/04/06 08:12:22;;;;;;;12.43;5.00;;;;;;;9.40;75.93;100108.56;5070237;28;20036;-70
2022/04/06 08:14:48;;;;;;;11.68;4.28;;;;;;;9.44;75.77;100110.91;5069010;28;20101;-70
2022/04/06 08:17:14;;;;;;;9.40;4.30;;;;;;;9.44;75.14;100124.19;5077769;28;20044;-70
2022/04/06 08:19:42;;;;;;;8.60;4.65;;;;;;;9.41;74.67;100110.25;5072366;28;20472;-70
2022/04/06 08:22:10;;;;;;;12.40;4.88;;;;;;;9.29;75.29;100106.66;5069358;28;20036;-70
2022/04/06 08:24:36;;;;;;;11.88;4.18;;;;;;;9.39;74.56;100118.34;5073879;28;20037;-70
2022/04/06 08:27:01;;;;;;;11.73;4.28;;;;;;;9.28;75.14;100124.41;5059243;28;20037;-70
2022/04/06 08:29:27;;;;;;;14.35;4.47;;;;;;;9.16;74.98;100082.81;5072956;28;20044;-70
2022/04/06 08:31:53;;;;;;;15.75;3.97;;;;;;;9.25;75.13;100114.00;5076763;28;20047;-70
2022/04/06 08:34:19;;;;;;;14.40;4.90;;;;;;;9.26;74.91;100126.28;5071923;28;20020;-70
2022/04/06 08:36:45;;;;;;;11.18;4.57;;;;;;;9.20;75.12;100121.41;5069804;28;20074;-70
2022/04/06 08:39:11;;;;;;;8.60;4.38;;;;;;;9.22;74.88;100113.38;5085184;28;20032;-70
2022/04/06 08:41:36;;;;;;;11.80;4.40;;;;;;;9.30;74.63;100124.31;5070830;28;20032;-69
2022/04/06 08:44:02;;;;;;;12.68;4.57;;;;;;;9.27;74.96;100114.75;5069638;28;20104;-70
2022/04/06 08:46:34;;;;;;;11.45;4.10;;;;;;;9.17;76.18;100116.31;5075961;28;20036;-70
2022/04/06 08:49:01;;;;;;;13.60;4.65;;;;;;;9.22;75.30;100116.88;5076543;28;20035;-70
2022/04/06 08:51:33;;;;;;;14.98;4.90;;;;;;;9.32;74.75;100106.44;5076798;28;20560;-70
2022/04/06 08:54:00;;;;;;;8.88;4.25;;;;;;;9.37;74.66;100114.09;5068778;28;20383;-70
2022/04/06 08:56:26;;;;;;;10.25;4.35;;;;;;;9.36;75.26;100107.94;5067951;28;20060;-70
2022/04/06 08:58:54;;;;;;;14.60;4.65;;;;;;;9.35;75.07;100098.28;5068208;28;20028;-70
2022/04/06 09:01:21;;;;;;;8.13;4.25;;;;;;;9.40;74.79;100097.97;5069230;28;20086;-69
2022/04/06 09:03:49;;;;;;;11.60;4.28;;;;;;;9.43;75.08;100113.66;5048345;28;20040;-70
2022/04/06 09:06:16;;;;;;;19.20;5.43;;;;;;;9.39;74.88;100098.94;5068220;28;20029;-70
2022/04/06 09:08:48;;;;;;;9.30;4.25;;;;;;;9.40;75.82;100111.22;5070549;28;20502;-70
2022/04/06 09:11:18;;;;;;;18.95;5.75;;;;;;;9.32;76.06;100117.06;5069784;28;20375;-69
2022/04/06 09:13:46;;;;;;;14.30;4.70;;;;;;;9.37;77.14;100111.44;5073073;28;20062;-70
2022/04/06 09:16:19;;;;;;;11.38;4.45;;;;;;;9.44;76.66;100110.91;5073944;28;20072;-70
2022/04/06 09:18:46;;;;;;;10.60;4.68;;;;;;;9.39;76.40;100106.88;5073746;28;20024;-70
2022/04/06 09:21:18;;;;;;;15.32;5.05;;;;;;;9.39;76.22;100101.59;5071870;28;20028;-70
2022/04/06 09:23:50;;;;;;;10.63;4.82;;;;;;;9.47;76.22;100109.84;5075566;28;20099;-70
2022/04/06 09:26:20;;;;;;;11.65;5.18;;;;;;;9.45;75.87;100111.75;5074587;28;20382;-70
2022/04/06 09:28:49;;;;;;;13.85;4.63;;;;;;;9.58;75.56;100099.31;5072495;28;20020;-70
2022/04/06 09:31:16;;;;;;;8.38;4.28;;;;;;;9.56;75.44;100101.25;5073006;28;20486;-70
2022/04/06 09:33:44;;;;;;;12.98;4.70;;;;;;;9.48;76.50;100100.94;5083357;28;20158;-70
2022/04/06 09:36:21;;;;;;;9.10;4.43;;;;;;;9.55;77.13;100091.56;5077399;28;20035;-70
2022/04/06 09:38:49;;;;;;;11.13;4.95;;;;;;;9.57;75.76;100097.63;5078379;28;20436;-69
2022/04/06 09:41:19;;;;;;;8.63;4.22;;;;;;;9.64;75.28;100103.34;5077820;28;20382;-70
2022/04/06 09:43:45;;;;;;;10.07;4.72;;;;;;;9.53;75.46;100085.53;5088118;28;20479;-70
2022/04/06 09:49:47;;;;;;;9.70;4.15;;;;;;;9.63;75.79;100110.47;5078192;28;20074;-69
2022/04/06 09:52:15;;;;;;;15.85;5.20;;;;;;;9.53;76.13;100093.50;5074098;28;20086;-70
2022/04/06 09:54:43;;;;;;;12.32;4.60;;;;;;;9.57;77.25;100092.31;5077867;28;20032;-70
2022/04/06 09:57:11;;;;;;;10.77;4.55;;;;;;;9.58;76.92;100088.69;5087748;28;21496;-70
2022/04/06 09:59:38;;;;;;;12.52;4.90;;;;;;;9.70;76.79;100108.22;5067795;28;20487;-69
2022/04/06 10:02:13;;;;;;;8.93;4.20;;;;;;;9.63;77.05;100099.84;5071764;28;20062;-70
2022/04/06 10:04:43;;;;;;;10.75;4.57;;;;;;;9.64;76.53;100095.38;5074056;28;20024;-70
2022/04/06 10:07:09;;;;;;;;;;;;;;;9.78;76.98;100090.78;5077211;28;20071;-69
2022/04/06 10:09:37;;;;;;;13.18;4.78;;;;;;;9.66;76.58;100086.34;5073051;28;19963;-70
2022/04/06 10:12:05;;;;;;;10.75;4.97;;;;;;;9.77;75.71;100083.78;5105838;28;20078;-70
2022/04/06 10:14:31;;;;;;;12.85;5.47;;;;;;;9.71;77.68;100072.75;5080621;28;20564;-70
2022/04/06 10:16:57;;;;;;;15.32;4.93;;;;;;;9.71;76.19;100070.94;5071520;28;20045;-69
2022/04/06 10:19:34;;;;;;;8.85;4.65;;;;;;;9.79;75.22;100081.00;5075705;28;20037;-69
2022/04/06 10:22:27;;;;;;;11.02;4.22;;;;;;;9.75;76.38;100074.22;5072816;28;20056;-70
2022/04/06 10:25:08;;;;;;;9.27;4.03;;;;;;;9.74;76.28;100065.41;5081218;28;20126;-70
2022/04/06 10:27:44;;;;;;;8.00;3.72;;;;;;;9.75;76.06;100077.72;5088846;28;20032;-69
2022/04/06 10:30:11;;;;;;;12.90;4.60;;;;;;;9.70;75.42;100071.88;5071442;28;20032;-70
2022/04/06 10:32:37;;;;;;;11.10;4.70;;;;;;;9.66;76.28;100080.19;5078228;28;20035;-70
2022/04/06 10:35:33;;;;;;;7.40;4.35;;;;;;;9.82;76.07;100067.50;5072207;28;20042;-70
2022/04/06 10:37:59;;;;;;;15.73;5.65;;;;;;;9.66;76.33;100067.75;5095499;28;20111;-70
2022/04/06 10:40:26;;;;;;;8.20;4.65;;;;;;;9.65;76.60;100062.56;5071546;28;20103;-70
2022/04/06 10:42:52;;;;;;;9.30;4.32;;;;;;;9.69;75.23;100072.84;5074928;28;20029;-70
2022/04/06 10:45:29;;;;;;;9.57;4.70;;;;;;;9.68;77.03;100065.84;5077288;28;20032;-70
2022/04/06 10:48:20;;;;;;;8.90;4.28;;;;;;;9.68;77.45;100070.31;5073634;28;20028;-70
2022/04/06 10:50:47;;;;;;;8.57;3.95;;;;;;;9.73;77.45;100068.16;5072823;28;20024;-70
2022/04/06 10:53:19;;;;;;;10.55;4.43;;;;;;;9.59;78.19;100055.03;5076204;28;20085;-70
2022/04/06 10:56:16;;;;;;;7.47;3.85;;;;;;;9.63;78.59;100056.53;5074338;28;20047;-70
2022/04/06 10:58:53;;;;;;;8.15;4.45;;;;;;;9.74;77.89;100048.63;5071757;28;20511;-70
2022/04/06 11:01:26;;;;;;;7.97;4.00;;;;;;;9.64;77.92;100061.69;5075413;28;20040;-71
2022/04/06 11:03:56;;;;;;;9.40;4.15;;;;;;;9.67;79.02;100040.25;5074817;28;20467;-71
2022/04/06 11:06:56;;;;;;;8.68;4.00;;;;;;;9.76;77.79;100047.56;5075913;28;20035;-71
2022/04/06 11:12:30;;;;;;;5.20;3.95;;;;;;;9.73;76.65;100045.09;5078357;28;20558;-70
2022/04/06 11:14:58;;;;;;;8.30;4.13;;;;;;;9.81;76.81;100052.53;5079824;28;20016;-70
2022/04/06 11:17:41;;;;;;;10.80;4.03;;;;;;;9.79;77.37;100041.16;5073670;28;20482;-71
2022/04/06 11:20:09;;;;;;;11.43;4.47;;;;;;;9.86;76.79;100038.94;5068869;28;20495;-70
2022/04/06 11:22:43;;;;;;;9.15;4.07;;;;;;;9.87;76.50;100035.28;5074347;28;20020;-70
2022/04/06 11:25:14;;;;;;;11.23;4.40;;;;;;;9.86;76.37;100018.53;5072202;28;20020;-70
2022/04/06 11:27:44;;;;;;;8.77;4.07;;;;;;;10.03;74.86;100025.25;5083645;28;20376;-70
2022/04/06 11:30:12;;;;;;;8.77;4.55;;;;;;;9.94;75.07;100020.59;5068320;28;20127;-70
2022/04/06 11:32:39;;;;;;;12.20;4.23;;;;;;;9.97;75.56;100023.03;5073758;28;20031;-70
2022/04/06 11:35:05;;;;;;;8.70;4.25;;;;;;;9.96;74.94;100021.34;5071596;28;20033;-70
2022/04/06 11:37:38;;;;;;;9.13;4.57;;;;;;;9.97;75.18;100015.94;5084449;28;20032;-71
2022/04/06 11:40:04;;;;;;;5.75;3.22;;;;;;;10.06;73.45;100025.03;5069814;28;20637;-70
2022/04/06 11:42:29;;;;;;;10.30;3.88;;;;;;;9.97;74.39;100018.59;5071021;28;20024;-70